Time;durP1;ratioP1;P1;durP2;ratioP2;P2;SDS_P1;SDS_P2;PMS_P1;PMS_P2;Temp;Humidity;BMP_temperature;BMP_pressure;BME280_temperature;BME280_humidity;BME280_pressure;Samples;Min_cycle;Max_cycle;Signal;HPM_P1;HPM_P2
2023/03/24 00:01:55;;;;;;;;;;;14.50;99.90;;;;;;7332684;19;109216;-73
2023/03/24 00:04:23;;;;;;;;;;;14.50;99.90;;;;;;7334266;19;111312;-73
2023/03/24 00:06:52;;;;;;;;;;;14.50;99.90;;;;;;7333655;19;109044;-72
2023/03/24 00:09:19;;;;;;;;;;;14.50;99.90;;;;;;7333234;19;112171;-73
2023/03/24 00:11:46;;;;;;;;;;;14.60;99.90;;;;;;7334250;19;108581;-73
2023/03/24 00:14:13;;;;;;;;;;;14.50;99.90;;;;;;7332570;19;109104;-73
2023/03/24 00:16:44;;;;;;;;;;;14.50;99.90;;;;;;7334411;19;110201;-73
2023/03/24 00:19:13;;;;;;;;;;;14.50;99.90;;;;;;7334664;19;108694;-73
2023/03/24 00:21:41;;;;;;;;;;;14.50;99.90;;;;;;7337948;19;108201;-73
2023/03/24 00:24:10;;;;;;;;;;;14.50;99.90;;;;;;7330940;19;108459;-73
2023/03/24 00:26:38;;;;;;;;;;;14.50;99.90;;;;;;7330807;19;109894;-73
2023/03/24 00:29:06;;;;;;;;;;;14.60;99.90;;;;;;7335457;19;110390;-74
2023/03/24 00:31:38;;;;;;;;;;;14.50;99.90;;;;;;7332850;19;108575;-74
2023/03/24 00:34:07;;;;;;;;;;;14.50;99.90;;;;;;7333051;19;108812;-74
2023/03/24 00:36:35;;;;;;;;;;;14.50;99.90;;;;;;7332769;19;110615;-73
2023/03/24 00:39:03;;;;;;;;;;;14.50;99.90;;;;;;7333640;19;108844;-73
2023/03/24 00:41:30;;;;;;;;;;;14.50;99.90;;;;;;7336611;19;108386;-72
2023/03/24 00:43:58;;;;;;;;;;;14.50;99.90;;;;;;7330982;19;109820;-74
2023/03/24 00:46:28;;;;;;;;;;;14.50;99.90;;;;;;7331114;19;108638;-73
2023/03/24 00:49:01;;;;;;;;;;;14.50;99.90;;;;;;7331427;19;109747;-73
2023/03/24 00:51:29;;;;;;;;;;;14.50;99.90;;;;;;7332411;19;109484;-73
2023/03/24 00:53:57;;;;;;;;;;;14.50;99.90;;;;;;7329895;19;109183;-72
2023/03/24 00:56:25;;;;;;;;;;;14.50;99.90;;;;;;7331745;19;110833;-74
2023/03/24 00:58:56;;;;;;;;;;;14.50;99.90;;;;;;7330820;19;109812;-73
2023/03/24 01:01:24;;;;;;;;;;;14.50;99.90;;;;;;7337282;19;110430;-75
2023/03/24 01:03:52;;;;;;;;;;;14.60;99.90;;;;;;7342901;19;109512;-73
2023/03/24 01:06:21;;;;;;;;;;;14.60;99.90;;;;;;7336657;19;109136;-73
2023/03/24 01:08:49;;;;;;;;;;;14.50;99.90;;;;;;7338345;19;109194;-73
2023/03/24 01:11:16;;;;;;;;;;;14.60;99.90;;;;;;7338308;19;109706;-73
2023/03/24 01:13:44;;;;;;;;;;;14.60;99.90;;;;;;7339589;19;109990;-74
2023/03/24 01:16:12;;;;;;;;;;;14.60;99.90;;;;;;7337050;19;109616;-73
2023/03/24 01:18:41;;;;;;;;;;;14.60;99.90;;;;;;7339086;19;110644;-73
2023/03/24 01:21:10;;;;;;;;;;;14.60;99.90;;;;;;7335156;19;108963;-73
2023/03/24 01:23:37;;;;;;;;;;;14.60;99.90;;;;;;7337955;19;110500;-74
2023/03/24 01:26:06;;;;;;;;;;;14.60;99.90;;;;;;7343912;19;108671;-74
2023/03/24 01:28:38;;;;;;;;;;;14.50;99.90;;;;;;7337950;19;112250;-74
2023/03/24 01:31:07;;;;;;;;;;;14.60;99.90;;;;;;7335586;19;109279;-74
2023/03/24 01:33:35;;;;;;;;;;;14.60;99.90;;;;;;7337428;19;108797;-74
2023/03/24 01:36:03;;;;;;;;;;;14.60;99.90;;;;;;7330425;19;110031;-73
2023/03/24 01:38:30;;;;;;;;;;;14.60;99.90;;;;;;7335505;19;109076;-74
2023/03/24 01:40:57;;;;;;;;;;;14.60;99.90;;;;;;7333768;19;110799;-73
2023/03/24 01:43:29;;;;;;;;;;;14.70;99.90;;;;;;7333883;19;109537;-74
2023/03/24 01:46:00;;;;;;;;;;;14.60;99.90;;;;;;7335360;19;108921;-74
2023/03/24 01:48:27;;;;;;;;;;;14.70;99.90;;;;;;7339277;19;108702;-74
2023/03/24 01:50:57;;;;;;;;;;;14.70;99.90;;;;;;7330689;19;108731;-74
2023/03/24 01:53:25;;;;;;;;;;;14.70;99.90;;;;;;7336944;19;109443;-74
2023/03/24 01:55:53;;;;;;;;;;;14.70;99.90;;;;;;7332902;19;110025;-75
2023/03/24 01:58:20;;;;;;;;;;;14.70;99.90;;;;;;7337106;19;108912;-74
2023/03/24 02:00:48;;;;;;;;;;;14.70;99.90;;;;;;7339311;19;111689;-74
2023/03/24 02:03:17;;;;;;;;;;;14.70;99.90;;;;;;7337465;19;110113;-74
2023/03/24 02:05:45;;;;;;;;;;;14.70;99.90;;;;;;7335766;19;109133;-74
2023/03/24 02:08:15;;;;;;;;;;;14.70;99.90;;;;;;7337408;19;109853;-74
2023/03/24 02:10:43;;;;;;;;;;;14.70;99.90;;;;;;7337267;19;110238;-74
2023/03/24 02:13:10;;;;;;;;;;;14.70;99.90;;;;;;7330670;19;109953;-74
2023/03/24 02:15:44;;;;;;;;;;;14.70;99.90;;;;;;7333146;19;109863;-74
2023/03/24 02:18:19;;;;;;;;;;;14.60;99.90;;;;;;7336001;19;108451;-74
2023/03/24 02:20:47;;;;;;;;;;;14.70;99.90;;;;;;7333142;19;108816;-77
2023/03/24 02:23:28;;;;;;;;;;;14.70;99.90;;;;;;7335999;19;110688;-76
2023/03/24 02:26:07;;;;;;;;;;;14.70;99.90;;;;;;7339357;19;108765;-75
2023/03/24 02:28:49;;;;;;;;;;;14.80;99.90;;;;;;7335644;19;108593;-75
2023/03/24 02:31:37;;;;;;;;;;;14.80;99.90;;;;;;7336378;19;110328;-78
2023/03/24 02:34:10;;;;;;;;;;;14.80;99.90;;;;;;7344393;19;108707;-79
2023/03/24 02:36:57;;;;;;;;;;;14.80;99.90;;;;;;7336553;19;110132;-74
2023/03/24 02:39:24;;;;;;;;;;;14.70;99.90;;;;;;7337505;19;108614;-74
2023/03/24 02:42:01;;;;;;;;;;;14.70;99.90;;;;;;7330205;19;108833;-73
2023/03/24 02:44:46;;;;;;;;;;;14.50;99.90;;;;;;7335815;19;110470;-74
2023/03/24 02:47:25;;;;;;;;;;;14.50;99.90;;;;;;7336324;19;108774;-74
2023/03/24 02:50:03;;;;;;;;;;;14.40;99.90;;;;;;7336604;19;109774;-73
2023/03/24 02:52:49;;;;;;;;;;;14.30;99.90;;;;;;7332718;19;109383;-74
2023/03/24 02:55:16;;;;;;;;;;;14.30;99.90;;;;;;7342368;19;108599;-73
2023/03/24 02:57:55;;;;;;;;;;;14.20;99.90;;;;;;7335493;19;110195;-73
2023/03/24 03:00:33;;;;;;;;;;;14.20;99.90;;;;;;7337433;19;109267;-73
2023/03/24 03:03:04;;;;;;;;;;;14.10;99.90;;;;;;7335824;19;109055;-73
2023/03/24 03:05:36;;;;;;;;;;;14.10;99.90;;;;;;7335192;19;109526;-73
2023/03/24 03:08:05;;;;;;;;;;;14.00;99.90;;;;;;7333908;19;109324;-73
2023/03/24 03:10:43;;;;;;;;;;;13.90;99.90;;;;;;7331954;19;109617;-74
2023/03/24 03:13:15;;;;;;;;;;;13.90;99.90;;;;;;7331464;19;109813;-73
2023/03/24 03:15:45;;;;;;;;;;;13.90;99.90;;;;;;7332391;19;108357;-73
2023/03/24 03:18:32;;;;;;;;;;;13.80;99.90;;;;;;7340785;19;108827;-73
2023/03/24 03:21:03;;;;;;;;;;;13.80;99.90;;;;;;7333327;19;111103;-73
2023/03/24 03:23:34;;;;;;;;;;;13.80;99.90;;;;;;7335515;19;109278;-73
2023/03/24 03:26:05;;;;;;;;;;;13.70;99.90;;;;;;7334896;19;110610;-72
2023/03/24 03:28:33;;;;;;;;;;;13.60;99.90;;;;;;7335482;19;108573;-73
2023/03/24 03:31:05;;;;;;;;;;;13.50;99.90;;;;;;7333775;19;109479;-73
2023/03/24 03:33:41;;;;;;;;;;;13.50;99.90;;;;;;7333315;19;109125;-73
2023/03/24 03:36:19;;;;;;;;;;;13.50;99.90;;;;;;7332491;19;111181;-73
2023/03/24 03:38:52;;;;;;;;;;;13.30;99.90;;;;;;7335855;19;108567;-72
2023/03/24 03:41:19;;;;;;;;;;;13.40;99.90;;;;;;7342080;19;109964;-72
2023/03/24 03:43:47;;;;;;;;;;;13.40;99.90;;;;;;7333276;19;109427;-72
2023/03/24 03:46:15;;;;;;;;;;;13.30;99.90;;;;;;7334313;19;109532;-73
2023/03/24 03:48:43;;;;;;;;;;;13.20;99.90;;;;;;7332156;19;108678;-73
2023/03/24 03:51:10;;;;;;;;;;;13.20;99.90;;;;;;7328835;19;109906;-72
2023/03/24 03:53:45;;;;;;;;;;;13.10;99.90;;;;;;7334405;19;110988;-73
2023/03/24 03:56:17;;;;;;;;;;;13.00;99.90;;;;;;7335099;19;108892;-72
2023/03/24 03:58:46;;;;;;;;;;;13.10;99.90;;;;;;7329753;19;109206;-67
2023/03/24 04:01:15;;;;;;;;;;;13.00;99.90;;;;;;7329575;19;110526;-67
2023/03/24 04:03:48;;;;;;;;;;;12.90;99.90;;;;;;7337414;19;108549;-67
2023/03/24 04:06:28;;;;;;;;;;;12.80;99.90;;;;;;7332794;19;109995;-67
2023/03/24 04:09:02;;;;;;;;;;;12.80;99.90;;;;;;7332918;19;109311;-66
2023/03/24 04:11:47;;;;;;;;;;;12.80;99.90;;;;;;7332075;19;109023;-67
2023/03/24 04:14:40;;;;;;;;;;;12.70;99.90;;;;;;7330107;19;111776;-66
2023/03/24 04:17:07;;;;;;;;;;;12.70;99.90;;;;;;7331347;19;110125;-68
2023/03/24 04:19:42;;;;;;;;;;;12.70;99.90;;;;;;7332623;19;112346;-66
2023/03/24 04:22:11;;;;;;;;;;;12.70;99.90;;;;;;7331208;19;109948;-66
2023/03/24 04:24:53;;;;;;;;;;;12.60;99.90;;;;;;7332286;19;108729;-66
2023/03/24 04:27:37;;;;;;;;;;;12.60;99.90;;;;;;7337798;19;108747;-66
2023/03/24 04:30:13;;;;;;;;;;;12.60;99.90;;;;;;7333192;19;109266;-66
2023/03/24 04:32:47;;;;;;;;;;;12.60;99.90;;;;;;7331056;19;108779;-66
2023/03/24 04:35:25;;;;;;;;;;;12.60;99.90;;;;;;7335752;19;109934;-66
2023/03/24 04:37:53;;;;;;;;;;;12.60;99.90;;;;;;7340292;19;108882;-74
2023/03/24 04:40:21;;;;;;;;;;;12.60;99.90;;;;;;7335599;19;109196;-74
2023/03/24 04:42:51;;;;;;;;;;;12.60;99.90;;;;;;7338075;19;109211;-70
2023/03/24 04:45:19;;;;;;;;;;;12.60;99.90;;;;;;7339082;19;108633;-73
2023/03/24 04:47:47;;;;;;;;;;;12.50;99.90;;;;;;7342408;19;108996;-76
2023/03/24 04:50:29;;;;;;;;;;;12.50;99.90;;;;;;7337242;19;109125;-67
2023/03/24 04:53:00;;;;;;;;;;;12.50;99.90;;;;;;7337437;19;119495;-71
2023/03/24 04:55:47;;;;;;;;;;;12.50;99.90;;;;;;7337922;19;109447;-67
2023/03/24 04:58:15;;;;;;;;;;;12.50;99.90;;;;;;7338605;19;111988;-66
2023/03/24 05:00:43;;;;;;;;;;;12.50;99.90;;;;;;7338615;19;108671;-66
2023/03/24 05:03:13;;;;;;;;;;;12.50;99.90;;;;;;7335300;19;109479;-66
2023/03/24 05:05:41;;;;;;;;;;;12.50;99.90;;;;;;7337315;19;108942;-66
2023/03/24 05:08:09;;;;;;;;;;;12.40;99.90;;;;;;7339151;19;108576;-66
2023/03/24 05:10:37;;;;;;;;;;;12.40;99.90;;;;;;7342538;19;109339;-66
2023/03/24 05:13:04;;;;;;;;;;;12.40;99.90;;;;;;7338234;19;109304;-66
2023/03/24 05:15:32;;;;;;;;;;;12.40;99.90;;;;;;7338639;19;109872;-66
2023/03/24 05:17:59;;;;;;;;;;;12.40;99.90;;;;;;7338745;19;108680;-67
2023/03/24 05:20:26;;;;;;;;;;;12.30;99.90;;;;;;7335634;19;108322;-66
2023/03/24 05:22:53;;;;;;;;;;;12.30;99.90;;;;;;7337231;19;109101;-66
2023/03/24 05:25:20;;;;;;;;;;;12.20;99.90;;;;;;7338241;19;109102;-66
2023/03/24 05:27:47;;;;;;;;;;;12.20;99.90;;;;;;7338707;19;108782;-65
2023/03/24 05:30:16;;;;;;;;;;;12.20;99.90;;;;;;7339686;19;109761;-66
2023/03/24 05:32:43;;;;;;;;;;;12.20;99.90;;;;;;7344583;19;109927;-66
2023/03/24 05:35:12;;;;;;;;;;;12.20;99.90;;;;;;7335152;19;110096;-66
2023/03/24 05:37:40;;;;;;;;;;;12.20;99.90;;;;;;7339449;19;108985;-66
2023/03/24 05:40:07;;;;;;;;;;;12.20;99.90;;;;;;7335408;19;108498;-65
2023/03/24 05:42:34;;;;;;;;;;;12.20;99.90;;;;;;7339421;19;110385;-65
2023/03/24 05:45:02;;;;;;;;;;;12.10;99.90;;;;;;7334936;19;111136;-66
2023/03/24 05:47:30;;;;;;;;;;;12.10;99.90;;;;;;7334273;19;113840;-66
2023/03/24 05:49:59;;;;;;;;;;;12.10;99.90;;;;;;7335531;19;110354;-65
2023/03/24 05:52:26;;;;;;;;;;;12.00;99.90;;;;;;7337376;19;109692;-66
2023/03/24 05:54:54;;;;;;;;;;;12.00;99.90;;;;;;7339027;19;108515;-66
2023/03/24 05:57:21;;;;;;;;;;;12.00;99.90;;;;;;7336249;19;109980;-65
2023/03/24 05:59:48;;;;;;;;;;;12.00;99.90;;;;;;7337315;19;109239;-66
2023/03/24 06:02:15;;;;;;;;;;;12.00;99.90;;;;;;7336607;19;109204;-65
2023/03/24 06:04:45;;;;;;;;;;;12.00;99.90;;;;;;7336666;19;108928;-65
2023/03/24 06:07:13;;;;;;;;;;;12.00;99.90;;;;;;7337326;19;109155;-65
2023/03/24 06:09:45;;;;;;;;;;;12.10;99.90;;;;;;7333919;19;112827;-65
2023/03/24 06:12:13;;;;;;;;;;;12.10;99.90;;;;;;7334929;19;109430;-66
2023/03/24 06:14:40;;;;;;;;;;;12.10;99.90;;;;;;7336184;19;108540;-65
2023/03/24 06:17:07;;;;;;;;;;;12.10;99.90;;;;;;7341803;19;109465;-65
2023/03/24 06:19:37;;;;;;;;;;;12.10;99.90;;;;;;7335414;19;109456;-65
2023/03/24 06:22:05;;;;;;;;;;;12.10;99.90;;;;;;7334627;19;109549;-66
2023/03/24 06:24:33;;;;;;;;;;;12.10;99.90;;;;;;7331911;19;110287;-66
2023/03/24 06:27:01;;;;;;;;;;;12.10;99.90;;;;;;7329976;19;109077;-66
2023/03/24 06:29:29;;;;;;;;;;;12.10;99.90;;;;;;7333282;19;109810;-66
2023/03/24 06:31:56;;;;;;;;;;;12.20;99.90;;;;;;7336646;19;109580;-65
2023/03/24 06:34:28;;;;;;;;;;;12.10;99.90;;;;;;7334056;19;108982;-66
2023/03/24 06:36:55;;;;;;;;;;;12.10;99.90;;;;;;7334355;19;109108;-66
2023/03/24 06:39:23;;;;;;;;;;;12.10;99.90;;;;;;7339917;19;108853;-65
2023/03/24 06:41:51;;;;;;;;;;;12.10;99.90;;;;;;7332131;19;109349;-66
2023/03/24 06:44:18;;;;;;;;;;;12.20;99.90;;;;;;7334592;19;109196;-65
2023/03/24 06:46:46;;;;;;;;;;;12.20;99.90;;;;;;7330166;19;110975;-66
2023/03/24 06:49:13;;;;;;;;;;;12.20;99.90;;;;;;7336686;19;109986;-65
2023/03/24 06:51:40;;;;;;;;;;;12.30;99.90;;;;;;7334836;19;108899;-65
2023/03/24 06:54:07;;;;;;;;;;;12.40;99.90;;;;;;7333362;19;108864;-65
2023/03/24 06:56:34;;;;;;;;;;;12.40;99.90;;;;;;7332039;19;110413;-65
2023/03/24 06:59:01;;;;;;;;;;;12.40;99.90;;;;;;7341194;19;109044;-65
2023/03/24 07:01:28;;;;;;;;;;;12.40;99.90;;;;;;7327807;19;109230;-67
2023/03/24 07:03:55;;;;;;;;;;;12.50;99.90;;;;;;7334194;19;109886;-67
2023/03/24 07:06:22;;;;;;;;;;;12.50;99.90;;;;;;7335073;19;108536;-66
2023/03/24 07:08:50;;;;;;;;;;;12.50;99.90;;;;;;7335366;19;109096;-67
2023/03/24 07:11:17;;;;;;;;;;;12.50;99.90;;;;;;7333600;19;109233;-67
2023/03/24 07:13:44;;;;;;;;;;;12.60;99.90;;;;;;7334838;19;108966;-67
2023/03/24 07:16:11;;;;;;;;;;;12.70;99.90;;;;;;7333904;19;109993;-66
2023/03/24 07:18:38;;;;;;;;;;;12.70;99.90;;;;;;7335224;19;108454;-67
2023/03/24 07:21:06;;;;;;;;;;;12.80;99.90;;;;;;7337455;19;109146;-67
2023/03/24 07:23:33;;;;;;;;;;;12.70;99.90;;;;;;7332785;19;108890;-67
2023/03/24 07:26:00;;;;;;;;;;;12.80;99.90;;;;;;7337573;19;109488;-67
2023/03/24 07:28:27;;;;;;;;;;;12.80;99.90;;;;;;7335943;19;114223;-67
2023/03/24 07:30:54;;;;;;;;;;;12.80;99.90;;;;;;7333595;19;108481;-67
2023/03/24 07:33:23;;;;;;;;;;;12.90;99.90;;;;;;7336130;19;108948;-67
2023/03/24 07:35:54;;;;;;;;;;;12.90;99.90;;;;;;7332913;19;109213;-67
2023/03/24 07:38:22;;;;;;;;;;;13.00;99.90;;;;;;7337388;19;109108;-67
2023/03/24 07:40:49;;;;;;;;;;;13.00;99.90;;;;;;7335204;19;108688;-67
2023/03/24 07:43:16;;;;;;;;;;;13.00;99.90;;;;;;7338457;19;109760;-67
2023/03/24 07:45:45;;;;;;;;;;;13.00;99.90;;;;;;7334261;19;109735;-69
2023/03/24 07:48:12;;;;;;;;;;;13.00;99.90;;;;;;7333506;19;109374;-69
2023/03/24 07:50:39;;;;;;;;;;;13.10;99.90;;;;;;7335286;19;108631;-68
2023/03/24 07:53:09;;;;;;;;;;;13.10;99.90;;;;;;7333876;19;109104;-69
2023/03/24 07:55:39;;;;;;;;;;;13.20;99.90;;;;;;7334426;19;110201;-67
2023/03/24 07:58:06;;;;;;;;;;;13.20;99.90;;;;;;7333851;19;108761;-68
2023/03/24 08:00:34;;;;;;;;;;;13.30;99.90;;;;;;7336518;19;109123;-67
2023/03/24 08:03:01;;;;;;;;;;;13.20;99.90;;;;;;7335522;19;110372;-69
2023/03/24 08:05:29;;;;;;;;;;;13.20;99.90;;;;;;7339376;19;109206;-69
2023/03/24 08:07:57;;;;;;;;;;;13.30;99.90;;;;;;7333287;19;110275;-68
2023/03/24 08:10:25;;;;;;;;;;;13.30;99.90;;;;;;7338502;19;108702;-70
2023/03/24 08:12:53;;;;;;;;;;;13.20;99.90;;;;;;7341258;19;109086;-67
2023/03/24 08:15:20;;;;;;;;;;;13.30;99.90;;;;;;7342034;19;111859;-68
2023/03/24 08:17:48;;;;;;;;;;;13.30;99.90;;;;;;7338534;19;110110;-67
2023/03/24 08:20:16;;;;;;;;;;;13.40;99.90;;;;;;7341924;19;109585;-67
2023/03/24 08:22:48;;;;;;;;;;;13.40;99.90;;;;;;7340975;19;110425;-67
2023/03/24 08:25:17;;;;;;;;;;;13.50;99.90;;;;;;7339895;19;108312;-67
2023/03/24 08:27:46;;;;;;;;;;;13.50;99.90;;;;;;7342810;19;110445;-67
2023/03/24 08:30:14;;;;;;;;;;;13.60;99.90;;;;;;7340671;19;108365;-67
2023/03/24 08:32:45;;;;;;;;;;;13.60;99.90;;;;;;7339708;19;109084;-68
2023/03/24 08:35:13;;;;;;;;;;;13.70;99.90;;;;;;7340451;19;109068;-67
2023/03/24 08:37:44;;;;;;;;;;;13.70;99.90;;;;;;7339377;19;108649;-67
2023/03/24 08:40:18;;;;;;;;;;;13.70;99.90;;;;;;7341882;19;108356;-67
2023/03/24 08:42:49;;;;;;;;;;;13.80;99.90;;;;;;7338438;19;110337;-67
2023/03/24 08:45:19;;;;;;;;;;;13.80;99.90;;;;;;7339149;19;108781;-67
2023/03/24 08:47:48;;;;;;;;;;;13.80;99.90;;;;;;7339191;19;109691;-67
2023/03/24 08:50:15;;;;;;;;;;;13.90;99.90;;;;;;7344871;19;111918;-66
2023/03/24 08:52:42;;;;;;;;;;;13.90;99.90;;;;;;7339819;19;108671;-67
2023/03/24 08:55:10;;;;;;;;;;;13.90;99.90;;;;;;7339069;19;109703;-67
2023/03/24 08:57:37;;;;;;;;;;;13.80;99.90;;;;;;7339006;19;108687;-71
2023/03/24 09:00:14;;;;;;;;;;;13.80;99.90;;;;;;7339710;19;110993;-67
2023/03/24 09:02:41;;;;;;;;;;;13.80;99.90;;;;;;7340191;19;109089;-67
2023/03/24 09:05:10;;;;;;;;;;;13.90;99.90;;;;;;7339252;19;109221;-67
2023/03/24 09:07:37;;;;;;;;;;;14.00;99.90;;;;;;7337831;19;109404;-67
2023/03/24 09:10:05;;;;;;;;;;;14.00;99.90;;;;;;7341096;19;109137;-68
2023/03/24 09:12:32;;;;;;;;;;;14.10;99.90;;;;;;7339441;19;108856;-67
2023/03/24 09:15:00;;;;;;;;;;;14.30;99.90;;;;;;7338545;19;109537;-67
2023/03/24 09:17:27;;;;;;;;;;;14.30;99.90;;;;;;7340889;19;108461;-67
2023/03/24 09:19:54;;;;;;;;;;;14.20;99.90;;;;;;7338362;19;109375;-67
2023/03/24 09:22:21;;;;;;;;;;;14.20;99.90;;;;;;7339330;19;110958;-67
2023/03/24 09:24:48;;;;;;;;;;;14.20;99.90;;;;;;7336055;19;108797;-67
2023/03/24 09:27:16;;;;;;;;;;;14.20;99.90;;;;;;7340446;19;111736;-68
2023/03/24 09:29:43;;;;;;;;;;;14.30;99.90;;;;;;7339724;19;110691;-66
2023/03/24 09:32:10;;;;;;;;;;;14.40;99.90;;;;;;7339124;19;108794;-68
2023/03/24 09:34:37;;;;;;;;;;;14.50;99.90;;;;;;7336946;19;110417;-68
2023/03/24 09:37:04;;;;;;;;;;;14.50;99.90;;;;;;7338443;19;109802;-67
2023/03/24 09:39:34;;;;;;;;;;;14.50;99.90;;;;;;7337724;19;112058;-67
2023/03/24 09:42:05;;;;;;;;;;;14.50;99.90;;;;;;7337101;19;109577;-67
2023/03/24 09:44:47;;;;;;;;;;;14.60;99.90;;;;;;7338906;19;110578;-67
2023/03/24 09:47:28;;;;;;;;;;;14.50;99.90;;;;;;7337790;19;108801;-67
2023/03/24 09:49:58;;;;;;;;;;;14.50;99.90;;;;;;7333813;19;109465;-75
2023/03/24 09:52:33;;;;;;;;;;;14.60;99.90;;;;;;7339712;19;108337;-73
2023/03/24 09:55:03;;;;;;;;;;;14.70;99.90;;;;;;7342467;19;109733;-71
2023/03/24 09:57:44;;;;;;;;;;;14.80;99.90;;;;;;7340410;19;108375;-74
2023/03/24 10:00:16;;;;;;;;;;;14.90;99.90;;;;;;7336813;19;108610;-68
2023/03/24 10:02:43;;;;;;;;;;;14.80;99.90;;;;;;7337123;19;109562;-68
2023/03/24 10:05:15;;;;;;;;;;;14.80;99.90;;;;;;7339406;19;108425;-67
2023/03/24 10:07:46;;;;;;;;;;;14.80;99.90;;;;;;7336232;19;109244;-68
2023/03/24 10:10:21;;;;;;;;;;;14.80;99.90;;;;;;7337720;19;109645;-67
2023/03/24 10:12:48;;;;;;;;;;;14.90;99.90;;;;;;7337882;19;108776;-67
2023/03/24 10:15:34;;;;;;;;;;;15.10;99.90;;;;;;7339192;19;109805;-67
2023/03/24 10:18:22;;;;;;;;;;;15.30;99.90;;;;;;7342787;19;109209;-67
2023/03/24 10:21:00;;;;;;;;;;;15.40;99.90;;;;;;7336208;19;110478;-67
2023/03/24 10:23:41;;;;;;;;;;;15.50;99.90;;;;;;7337948;19;110637;-67
2023/03/24 10:26:15;;;;;;;;;;;15.40;99.90;;;;;;7338192;19;108924;-67
2023/03/24 10:28:56;;;;;;;;;;;15.40;99.90;;;;;;7335741;19;108635;-67
2023/03/24 10:31:28;;;;;;;;;;;15.60;99.90;;;;;;7337338;19;110551;-67
2023/03/24 10:33:55;;;;;;;;;;;15.80;99.90;;;;;;7335281;19;109010;-67
2023/03/24 10:36:23;;;;;;;;;;;15.70;99.90;;;;;;7339556;19;109004;-67
2023/03/24 10:38:51;;;;;;;;;;;15.70;99.90;;;;;;7336103;19;110344;-67
2023/03/24 10:41:20;;;;;;;;;;;15.70;99.90;;;;;;7341804;19;109664;-67
2023/03/24 10:43:49;;;;;;;;;;;15.90;99.90;;;;;;7335836;19;111648;-67
2023/03/24 10:46:21;;;;;;;;;;;15.80;99.90;;;;;;7338717;19;108731;-67
2023/03/24 10:48:49;;;;;;;;;;;15.70;99.90;;;;;;7337162;19;109165;-67
2023/03/24 10:51:18;;;;;;;;;;;15.70;99.90;;;;;;7334753;19;109075;-67
2023/03/24 10:53:49;;;;;;;;;;;15.90;99.90;;;;;;7334319;19;109114;-67
2023/03/24 10:56:18;;;;;;;;;;;16.00;99.90;;;;;;7337446;19;108823;-67
2023/03/24 10:58:46;;;;;;;;;;;15.90;99.90;;;;;;7335561;19;109742;-67
2023/03/24 11:01:21;;;;;;;;;;;15.80;99.90;;;;;;7338932;19;108806;-67
2023/03/24 11:03:49;;;;;;;;;;;15.70;99.90;;;;;;7341230;19;108517;-67
2023/03/24 11:06:17;;;;;;;;;;;15.50;99.90;;;;;;7335935;19;108488;-68
2023/03/24 11:08:44;;;;;;;;;;;15.50;99.90;;;;;;7337784;19;109136;-67
2023/03/24 11:11:28;;;;;;;;;;;15.40;99.90;;;;;;7334953;19;110169;-67
2023/03/24 11:13:56;;;;;;;;;;;15.40;99.90;;;;;;7339734;19;108971;-67
2023/03/24 11:16:28;;;;;;;;;;;15.50;99.90;;;;;;7334891;19;108525;-67
2023/03/24 11:18:57;;;;;;;;;;;15.50;99.90;;;;;;7337050;19;109410;-67
2023/03/24 11:21:26;;;;;;;;;;;15.60;99.90;;;;;;7337438;19;108872;-67
2023/03/24 11:23:56;;;;;;;;;;;15.50;99.90;;;;;;7337222;19;109151;-67
2023/03/24 11:26:31;;;;;;;;;;;15.50;99.90;;;;;;7334751;19;108808;-67
2023/03/24 11:29:00;;;;;;;;;;;15.50;99.90;;;;;;7335507;19;109554;-68
2023/03/24 11:31:32;;;;;;;;;;;15.40;99.90;;;;;;7334628;19;109163;-68
2023/03/24 11:34:08;;;;;;;;;;;15.30;99.90;;;;;;7333722;19;108846;-68
2023/03/24 11:36:36;;;;;;;;;;;15.30;99.90;;;;;;7333335;19;109464;-67
2023/03/24 11:39:12;;;;;;;;;;;15.40;99.90;;;;;;7333502;19;110314;-67
2023/03/24 11:41:41;;;;;;;;;;;15.60;99.90;;;;;;7333396;19;108322;-67
2023/03/24 11:44:14;;;;;;;;;;;15.60;99.90;;;;;;7334733;19;110199;-67
2023/03/24 11:46:43;;;;;;;;;;;15.70;99.90;;;;;;7339809;19;109728;-67
2023/03/24 11:49:12;;;;;;;;;;;15.60;99.90;;;;;;7335873;19;109348;-67
2023/03/24 11:51:41;;;;;;;;;;;15.40;99.90;;;;;;7332575;19;109137;-67
2023/03/24 11:54:11;;;;;;;;;;;15.20;99.90;;;;;;7335757;19;109836;-67
2023/03/24 11:56:43;;;;;;;;;;;15.20;99.90;;;;;;7333668;19;108672;-66
2023/03/24 11:59:30;;;;;;;;;;;15.00;99.90;;;;;;7335132;19;114654;-67
2023/03/24 12:02:06;;;;;;;;;;;15.00;99.90;;;;;;7331897;19;109566;-67
2023/03/24 12:04:33;;;;;;;;;;;14.80;99.90;;;;;;7335768;19;108839;-67
2023/03/24 12:07:01;;;;;;;;;;;14.50;99.90;;;;;;7333586;19;109679;-67
2023/03/24 12:09:39;;;;;;;;;;;14.20;99.90;;;;;;7340946;19;110099;-67
2023/03/24 12:12:18;;;;;;;;;;;14.00;99.90;;;;;;7336085;19;109082;-67
2023/03/24 12:14:45;;;;;;;;;;;13.80;99.90;;;;;;7334453;19;108709;-67
2023/03/24 12:17:12;;;;;;;;;;;13.60;99.90;;;;;;7335256;19;108294;-67
2023/03/24 12:19:54;;;;;;;;;;;13.50;99.90;;;;;;7333485;19;109761;-67
2023/03/24 12:22:37;;;;;;;;;;;13.50;99.90;;;;;;7332977;19;108914;-68
2023/03/24 12:25:17;;;;;;;;;;;13.50;99.90;;;;;;7336040;19;108570;-67
2023/03/24 12:27:44;;;;;;;;;;;13.60;99.90;;;;;;7332389;19;109219;-67
2023/03/24 12:30:14;;;;;;;;;;;13.90;99.90;;;;;;7334264;19;109903;-67
2023/03/24 12:32:44;;;;;;;;;;;13.90;99.90;;;;;;7337509;19;108292;-67
2023/03/24 12:35:20;;;;;;;;;;;14.10;99.90;;;;;;7334773;19;108530;-67
2023/03/24 12:38:06;;;;;;;;;;;14.20;99.90;;;;;;7334770;19;109288;-66
2023/03/24 12:40:45;;;;;;;;;;;14.20;99.90;;;;;;7332851;19;109742;-67
2023/03/24 12:43:18;;;;;;;;;;;14.30;99.90;;;;;;7335874;19;109526;-67
2023/03/24 12:45:51;;;;;;;;;;;14.30;99.90;;;;;;7333994;19;108884;-67
2023/03/24 12:48:26;;;;;;;;;;;14.30;99.90;;;;;;7333999;19;109641;-67
2023/03/24 12:50:53;;;;;;;;;;;14.30;99.90;;;;;;7334130;19;108589;-67
2023/03/24 12:53:52;;;;;;;;;;;14.20;99.90;;;;;;7333851;19;109228;-66
2023/03/24 12:56:29;;;;;;;;;;;14.10;99.90;;;;;;7338628;19;109173;-67
2023/03/24 12:59:05;;;;;;;;;;;14.20;99.90;;;;;;7337365;19;109244;-67
2023/03/24 13:01:40;;;;;;;;;;;14.10;99.90;;;;;;7339130;19;109346;-67
2023/03/24 13:04:14;;;;;;;;;;;14.00;99.90;;;;;;7342999;19;110694;-67
2023/03/24 13:06:55;;;;;;;;;;;14.00;99.90;;;;;;7340050;19;108841;-67
2023/03/24 13:09:40;;;;;;;;;;;14.00;99.90;;;;;;7341210;19;110179;-68
2023/03/24 13:12:15;;;;;;;;;;;14.10;99.90;;;;;;7342912;19;109341;-67
2023/03/24 13:14:48;;;;;;;;;;;14.20;99.90;;;;;;7340423;19;108534;-67
2023/03/24 13:17:25;;;;;;;;;;;14.40;99.90;;;;;;7340385;19;109714;-67
2023/03/24 13:19:54;;;;;;;;;;;14.50;99.90;;;;;;7343151;19;108432;-68
2023/03/24 13:22:23;;;;;;;;;;;14.60;99.90;;;;;;7338066;19;109299;-67
2023/03/24 13:24:51;;;;;;;;;;;14.60;99.90;;;;;;7339167;19;109229;-69
2023/03/24 13:27:22;;;;;;;;;;;14.60;99.90;;;;;;7339306;19;109042;-67
2023/03/24 13:29:57;;;;;;;;;;;14.70;99.90;;;;;;7332928;19;110527;-67
2023/03/24 13:32:27;;;;;;;;;;;14.80;99.90;;;;;;7332944;19;109976;-69
2023/03/24 13:35:08;;;;;;;;;;;14.90;99.90;;;;;;7332718;19;108896;-67
2023/03/24 13:37:38;;;;;;;;;;;14.80;99.90;;;;;;7336932;19;110087;-68
2023/03/24 13:40:10;;;;;;;;;;;14.90;99.90;;;;;;7340791;19;113210;-69
2023/03/24 13:43:06;;;;;;;;;;;14.80;99.90;;;;;;7337520;19;110035;-68
2023/03/24 13:45:40;;;;;;;;;;;14.80;99.90;;;;;;7338007;19;110307;-77
2023/03/24 13:48:10;;;;;;;;;;;14.80;99.90;;;;;;7340907;19;109025;-75
2023/03/24 13:50:38;;;;;;;;;;;14.80;99.90;;;;;;7338932;19;110080;-75
2023/03/24 13:53:10;;;;;;;;;;;15.00;99.90;;;;;;7338472;19;109419;-74
2023/03/24 13:55:38;;;;;;;;;;;15.10;99.90;;;;;;7340631;19;108205;-78
2023/03/24 13:58:10;;;;;;;;;;;15.30;99.90;;;;;;7336668;19;113074;-75
2023/03/24 14:00:55;;;;;;;;;;;15.50;99.90;;;;;;7335605;19;109286;-77
2023/03/24 14:03:33;;;;;;;;;;;15.40;99.90;;;;;;7339553;19;109254;-76
2023/03/24 14:06:03;;;;;;;;;;;15.60;99.90;;;;;;7338480;19;109340;-71
2023/03/24 14:08:50;;;;;;;;;;;15.80;99.90;;;;;;7335992;19;108830;-71
2023/03/24 14:11:48;;;;;;;;;;;16.00;99.90;;;;;;7333749;19;110192;-74
2023/03/24 14:14:17;;;;;;;;;;;16.20;99.90;;;;;;7336665;19;109529;-72
2023/03/24 14:16:51;;;;;;;;;;;16.30;99.90;;;;;;7336140;19;110077;-73
2023/03/24 14:19:20;;;;;;;;;;;16.40;99.90;;;;;;7337067;19;109284;-71
2023/03/24 14:21:52;;;;;;;;;;;16.50;99.90;;;;;;7337195;19;108900;-72
2023/03/24 14:24:22;;;;;;;;;;;16.40;99.90;;;;;;7338673;19;109181;-72
2023/03/24 14:26:50;;;;;;;;;;;16.40;99.90;;;;;;7342142;19;109156;-72